createdAt,value
2018-02-13T00:02:01.462Z,8.05
2018-02-13T00:04:29.794Z,8.32
2018-02-13T00:06:58.701Z,8.75
2018-02-13T00:09:27.266Z,7.30
2018-02-13T00:11:55.590Z,7.57
2018-02-13T00:14:24.650Z,8.65
2018-02-13T00:16:52.983Z,8.05
2018-02-13T00:19:22.121Z,7.25
2018-02-13T00:21:51.287Z,8.20
2018-02-13T00:24:19.618Z,7.25
2018-02-13T00:26:47.991Z,7.05
2018-02-13T00:29:17.082Z,7.80
2018-02-13T00:31:45.450Z,6.87
2018-02-13T00:34:13.781Z,7.25
2018-02-13T00:36:42.729Z,7.55
2018-02-13T00:39:11.040Z,7.62
2018-02-13T00:41:39.395Z,6.90
2018-02-13T00:44:08.808Z,6.32
2018-02-13T00:46:37.176Z,7.25
2018-02-13T00:49:10.037Z,6.20
2018-02-13T00:51:39.167Z,6.75
2018-02-13T00:54:10.771Z,6.95
2018-02-13T00:56:39.089Z,6.97
2018-02-13T00:59:08.190Z,7.10
2018-02-13T01:01:38.394Z,7.03
2018-02-13T01:04:06.840Z,6.70
2018-02-13T01:06:38.709Z,6.75
2018-02-13T01:09:11.442Z,7.65
2018-02-13T01:11:42.065Z,6.85
2018-02-13T01:14:12.158Z,6.60
2018-02-13T01:16:40.491Z,7.47
2018-02-13T01:19:09.611Z,6.40
2018-02-13T01:21:38.765Z,6.50
2018-02-13T01:24:07.080Z,7.50
2018-02-13T01:26:35.392Z,6.60
2018-02-13T01:29:06.712Z,7.60
2018-02-13T01:31:35.043Z,7.18
2018-02-13T01:34:06.800Z,7.00
2018-02-13T01:36:35.119Z,6.55
2018-02-13T01:39:04.257Z,6.12
2018-02-13T01:41:33.363Z,8.25
2018-02-13T01:44:01.690Z,6.75
2018-02-13T01:46:30.057Z,7.10
2018-02-13T01:48:59.397Z,8.52
2018-02-13T01:51:29.324Z,6.85
2018-02-13T01:53:57.663Z,7.80
2018-02-13T01:56:29.666Z,7.60
2018-02-13T01:58:58.046Z,7.05
2018-02-13T02:01:26.379Z,7.50
2018-02-13T02:03:55.445Z,5.40
2018-02-13T02:06:23.798Z,7.15
2018-02-13T02:08:52.912Z,6.95
2018-02-13T02:11:22.049Z,6.78
2018-02-13T02:13:50.407Z,6.35
2018-02-13T02:16:18.736Z,7.40
2018-02-13T02:18:48.009Z,7.35
2018-02-13T02:21:16.325Z,9.50
2018-02-13T02:23:44.653Z,7.70
2018-02-13T02:26:13.853Z,8.25
2018-02-13T02:28:43.087Z,8.15
2018-02-13T02:31:11.565Z,8.80
2018-02-13T02:33:41.888Z,8.65
2018-02-13T02:36:10.607Z,8.75
2018-02-13T02:38:38.989Z,8.45
2018-02-13T02:41:08.403Z,7.55
2018-02-13T02:43:36.820Z,7.90
2018-02-13T02:46:05.202Z,8.85
2018-02-13T02:48:36.415Z,9.23
2018-02-13T02:51:14.913Z,8.55
2018-02-13T02:53:47.182Z,9.10
2018-02-13T02:56:16.335Z,8.20
2018-02-13T02:58:45.623Z,8.90
2018-02-13T03:01:15.014Z,7.87
2018-02-13T03:03:46.818Z,8.68
2018-02-13T03:06:18.735Z,8.90
2018-02-13T03:08:47.432Z,9.95
2018-02-13T03:11:15.868Z,8.77
2018-02-13T03:13:44.844Z,8.95
2018-02-13T03:16:13.280Z,9.77
2018-02-13T03:21:42.959Z,9.43
2018-02-13T03:27:10.394Z,9.10
2018-02-13T03:35:36.101Z,8.40
2018-02-13T03:38:04.469Z,9.52
2018-02-13T03:43:30.975Z,10.50
2018-02-13T03:46:00.161Z,11.27
2018-02-13T03:48:30.121Z,10.82
2018-02-13T03:50:58.505Z,9.50
2018-02-13T03:53:28.752Z,10.80
2018-02-13T03:55:59.843Z,10.05
2018-02-13T03:58:30.777Z,9.98
2018-02-13T04:00:59.886Z,10.35
2018-02-13T04:03:28.332Z,10.93
2018-02-13T04:08:54.860Z,9.68
2018-02-13T04:11:25.750Z,10.68
2018-02-13T04:30:39.855Z,9.13
2018-02-13T04:35:54.395Z,11.57
2018-02-13T04:38:23.578Z,11.93
2018-02-13T04:43:43.241Z,10.85
2018-02-13T04:46:13.729Z,10.02
2018-02-13T04:48:46.768Z,11.30
2018-02-13T04:51:21.994Z,9.88
2018-02-13T04:53:53.495Z,10.15
2018-02-13T05:41:37.408Z,10.63
2018-02-13T05:44:08.385Z,11.35
2018-02-13T05:47:01.387Z,10.77
2018-02-13T06:01:50.801Z,9.48
2018-02-13T06:35:53.717Z,9.45
2018-02-13T06:53:24.306Z,10.40
2018-02-13T07:05:02.638Z,8.50
2018-02-13T07:25:29.634Z,9.30
2018-02-13T07:27:58.764Z,9.20
2018-02-13T07:39:28.544Z,8.35
2018-02-13T07:41:56.992Z,9.80
2018-02-13T07:44:27.003Z,8.60
2018-02-13T07:46:57.660Z,8.43
2018-02-13T07:49:26.735Z,8.27
2018-02-13T08:00:49.349Z,8.18
2018-02-13T08:03:18.765Z,9.18
2018-02-13T08:08:48.031Z,6.30
2018-02-13T08:11:16.724Z,5.78
2018-02-13T08:13:45.503Z,6.87
2018-02-13T08:16:14.407Z,5.60
2018-02-13T08:18:42.787Z,5.60
2018-02-13T08:21:11.441Z,5.70
2018-02-13T08:23:40.708Z,5.80
2018-02-13T08:26:10.010Z,5.90
2018-02-13T08:28:38.352Z,6.25
2018-02-13T08:31:08.407Z,5.85
2018-02-13T08:33:36.720Z,6.35
2018-02-13T08:36:05.113Z,6.80
2018-02-13T08:38:35.242Z,6.97
2018-02-13T08:41:04.325Z,5.80
2018-02-13T08:43:33.710Z,5.90
2018-02-13T08:46:02.736Z,6.40
2018-02-13T08:48:31.153Z,7.30
2018-02-13T08:51:00.301Z,6.43
2018-02-13T08:53:29.329Z,7.90
2018-02-13T08:55:57.742Z,7.03
2018-02-13T08:58:26.146Z,7.03
2018-02-13T09:00:55.400Z,6.00
2018-02-13T09:03:24.515Z,6.47
2018-02-13T09:05:55.863Z,5.77
2018-02-13T09:08:24.204Z,5.80
2018-02-13T09:10:52.576Z,5.57
2018-02-13T09:13:21.864Z,5.37
2018-02-13T09:15:57.275Z,4.90
2018-02-13T09:18:27.438Z,5.83
2018-02-13T09:20:56.021Z,5.80
2018-02-13T09:23:24.425Z,4.77
2018-02-13T09:25:54.218Z,4.00
2018-02-13T09:28:23.339Z,4.83
2018-02-13T09:30:51.683Z,3.93
2018-02-13T09:33:21.253Z,3.80
2018-02-13T09:35:49.581Z,3.90
2018-02-13T09:38:17.961Z,3.62
2018-02-13T09:40:47.391Z,3.67
2018-02-13T09:43:15.938Z,3.28
2018-02-13T09:45:44.382Z,3.08
2018-02-13T09:48:13.696Z,2.55
2018-02-13T09:50:42.859Z,2.85
2018-02-13T09:53:12.016Z,2.92
2018-02-13T09:55:41.147Z,3.17
2018-02-13T09:58:09.529Z,2.50
2018-02-13T10:00:38.102Z,2.55
2018-02-13T10:03:08.136Z,3.05
2018-02-13T10:05:36.567Z,3.20
2018-02-13T10:08:06.790Z,3.50
2018-02-13T10:10:36.219Z,4.20
2018-02-13T10:13:04.677Z,3.90
2018-02-13T10:15:34.248Z,3.85
2018-02-13T10:18:03.762Z,4.10
2018-02-13T10:20:32.497Z,4.15
2018-02-13T10:23:01.679Z,3.92
2018-02-13T10:25:30.089Z,4.30
2018-02-13T10:27:58.552Z,4.57
2018-02-13T10:30:27.688Z,5.18
2018-02-13T10:32:56.106Z,5.30
2018-02-13T10:35:25.167Z,4.60
2018-02-13T10:37:54.801Z,6.07
2018-02-13T10:40:24.006Z,5.35
2018-02-13T10:42:52.470Z,5.60
2018-02-13T10:45:21.781Z,4.60
2018-02-13T10:47:50.088Z,5.72
2018-02-13T10:50:19.183Z,5.30
2018-02-13T10:52:49.022Z,5.37
2018-02-13T10:55:17.322Z,4.95
2018-02-13T10:57:45.677Z,5.30
2018-02-13T11:00:14.656Z,5.37
2018-02-13T11:02:43.895Z,5.37
2018-02-13T11:05:12.228Z,6.10
2018-02-13T11:07:41.250Z,6.25
2018-02-13T11:10:11.153Z,5.28
2018-02-13T11:12:40.268Z,5.65
2018-02-13T11:15:09.891Z,5.60
2018-02-13T11:17:38.538Z,5.68
2018-02-13T11:20:07.043Z,4.90
2018-02-13T11:22:36.847Z,5.60
2018-02-13T11:25:06.064Z,5.32
2018-02-13T11:27:35.159Z,5.20
2018-02-13T11:30:04.131Z,4.60
2018-02-13T11:32:32.495Z,5.25
2018-02-13T11:35:00.823Z,4.90
2018-02-13T11:37:31.043Z,4.50
2018-02-13T11:40:00.143Z,5.35
2018-02-13T11:42:28.474Z,6.18
2018-02-13T11:44:57.219Z,5.95
2018-02-13T11:47:25.669Z,5.68
2018-02-13T11:49:55.007Z,5.22
2018-02-13T11:52:24.127Z,4.97
2018-02-13T11:54:53.313Z,5.65
2018-02-13T11:57:21.710Z,5.53
2018-02-13T11:59:50.917Z,5.70
2018-02-13T12:02:19.209Z,6.50
2018-02-13T12:04:47.527Z,5.53
2018-02-13T12:07:16.677Z,5.85
2018-02-13T12:09:52.576Z,5.05
2018-02-13T12:12:21.875Z,5.28
2018-02-13T12:14:51.250Z,5.60
2018-02-13T12:17:19.577Z,5.45
2018-02-13T12:19:48.294Z,5.55
2018-02-13T12:22:16.640Z,4.85
2018-02-13T12:24:45.025Z,5.72
2018-02-13T12:27:14.877Z,5.43
2018-02-13T12:29:43.976Z,4.85
2018-02-13T12:32:12.340Z,5.30
2018-02-13T12:34:41.074Z,5.12
2018-02-13T12:37:10.175Z,4.65
2018-02-13T12:39:38.519Z,4.93
2018-02-13T12:42:08.141Z,4.93
2018-02-13T12:44:36.486Z,4.35
2018-02-13T12:47:04.813Z,5.15
2018-02-13T12:49:34.357Z,4.10
2018-02-13T12:52:02.695Z,3.55
2018-02-13T12:54:31.805Z,4.82
2018-02-13T12:57:01.741Z,4.80
2018-02-13T12:59:30.832Z,4.60
2018-02-13T13:01:59.926Z,4.10
2018-02-13T13:04:29.929Z,3.65
2018-02-13T13:06:58.520Z,4.15
2018-02-13T13:09:26.849Z,4.47
2018-02-13T13:11:56.302Z,4.70
2018-02-13T13:14:24.991Z,3.90
2018-02-13T13:16:54.230Z,4.30
2018-02-13T13:19:23.237Z,4.07
2018-02-13T13:21:51.616Z,4.78
2018-02-13T13:24:19.974Z,4.12
2018-02-13T13:26:50.529Z,3.95
2018-02-13T13:29:19.099Z,3.83
2018-02-13T13:31:47.681Z,3.22
2018-02-13T13:34:16.749Z,3.67
2018-02-13T13:36:46.116Z,3.50
2018-02-13T13:39:14.510Z,3.40
2018-02-13T13:41:43.573Z,3.17
2018-02-13T13:44:12.110Z,3.30
2018-02-13T13:46:40.437Z,3.30
2018-02-13T13:49:10.698Z,3.60
2018-02-13T13:51:39.217Z,3.40
2018-02-13T13:54:08.410Z,4.00
2018-02-13T13:56:38.306Z,4.30
2018-02-13T13:59:06.756Z,3.78
2018-02-13T14:01:36.100Z,3.30
2018-02-13T14:04:06.356Z,3.10
2018-02-13T14:06:35.566Z,3.70
2018-02-13T14:09:04.349Z,3.25
2018-02-13T14:11:33.271Z,3.55
2018-02-13T14:14:02.086Z,3.72
2018-02-13T14:16:32.436Z,2.78
2018-02-13T14:19:02.451Z,3.17
2018-02-13T14:21:30.773Z,3.90
2018-02-13T14:23:59.171Z,3.40
2018-02-13T14:26:27.937Z,3.97
2018-02-13T14:28:56.285Z,3.83
2018-02-13T14:31:24.827Z,3.80
2018-02-13T14:33:54.194Z,3.67
2018-02-13T14:36:22.532Z,3.15
2018-02-13T14:38:51.728Z,2.72
2018-02-13T14:41:22.471Z,3.40
2018-02-13T14:43:51.853Z,3.50
2018-02-13T14:46:20.413Z,3.40
2018-02-13T14:48:49.919Z,3.83
2018-02-13T14:51:19.349Z,3.12
2018-02-13T14:53:47.797Z,3.10
2018-02-13T14:56:17.419Z,3.37
2018-02-13T14:58:45.764Z,2.85
2018-02-13T15:01:14.323Z,2.97
2018-02-13T15:03:43.993Z,3.33
2018-02-13T15:06:12.438Z,3.30
2018-02-13T15:08:40.898Z,3.17
2018-02-13T15:11:10.215Z,4.40
2018-02-13T15:13:38.896Z,3.95
2018-02-13T15:16:07.795Z,5.15
2018-02-13T15:18:39.140Z,3.70
2018-02-13T15:21:08.324Z,3.28
2018-02-13T15:23:36.688Z,4.18
2018-02-13T15:26:06.450Z,4.00
2018-02-13T15:28:34.914Z,7.82
2018-02-13T15:31:03.441Z,4.53
2018-02-13T15:33:33.335Z,6.90
2018-02-13T15:36:01.770Z,4.62
2018-02-13T15:38:30.880Z,4.85
2018-02-13T15:41:01.439Z,4.47
2018-02-13T15:43:29.970Z,3.22
2018-02-13T15:45:58.393Z,3.62
2018-02-13T15:48:28.940Z,3.70
2018-02-13T15:51:00.387Z,3.30
2018-02-13T15:53:31.204Z,3.83
2018-02-13T15:56:00.144Z,4.18
2018-02-13T15:58:30.856Z,4.35
2018-02-13T16:01:00.752Z,3.80
2018-02-13T16:03:29.145Z,4.22
2018-02-13T16:05:58.732Z,4.70
2018-02-13T16:08:27.358Z,4.37
2018-02-13T16:10:56.441Z,4.43
2018-02-13T16:13:28.338Z,4.18
2018-02-13T16:15:58.608Z,3.55
2018-02-13T16:18:31.202Z,4.53
2018-02-13T16:21:07.287Z,4.57
2018-02-13T16:23:36.347Z,4.70
2018-02-13T16:26:04.999Z,5.28
2018-02-13T16:28:33.374Z,5.28
2018-02-13T16:31:02.946Z,5.25
2018-02-13T16:33:32.201Z,17.77
2018-02-13T16:36:02.195Z,5.85
2018-02-13T16:38:34.242Z,4.60
2018-02-13T16:41:02.584Z,5.37
2018-02-13T16:43:31.017Z,5.70
2018-02-13T16:46:00.931Z,6.20
2018-02-13T16:48:29.616Z,4.93
2018-02-13T16:50:58.427Z,6.32
2018-02-13T16:53:28.178Z,6.95
2018-02-13T16:55:56.881Z,5.97
2018-02-13T16:58:25.991Z,5.05
2018-02-13T17:00:55.860Z,6.22
2018-02-13T17:03:24.380Z,5.72
2018-02-13T17:05:54.355Z,5.70
2018-02-13T17:08:24.440Z,5.50
2018-02-13T17:10:53.127Z,6.10
2018-02-13T17:13:21.972Z,6.53
2018-02-13T17:15:51.732Z,6.00
2018-02-13T17:18:20.622Z,7.30
2018-02-13T17:20:49.860Z,6.20
2018-02-13T17:23:20.662Z,7.15
2018-02-13T17:25:49.771Z,6.80
2018-02-13T17:28:19.394Z,7.37
2018-02-13T17:30:49.517Z,7.07
2018-02-13T17:33:18.351Z,6.18
2018-02-13T17:35:47.160Z,5.87
2018-02-13T17:38:17.233Z,6.90
2018-02-13T17:40:46.948Z,7.60
2018-02-13T17:43:17.078Z,7.35
2018-02-13T17:45:48.009Z,8.10
2018-02-13T17:48:17.224Z,7.75
2018-02-13T17:50:45.928Z,7.55
2018-02-13T17:53:15.111Z,7.85
2018-02-13T17:55:43.950Z,7.80
2018-02-13T17:58:14.107Z,8.30
2018-02-13T18:00:43.859Z,8.15
2018-02-13T18:03:20.047Z,7.07
2018-02-13T18:05:50.952Z,8.55
2018-02-13T18:08:19.628Z,7.18
2018-02-13T18:10:49.044Z,8.73
2018-02-13T18:13:18.716Z,8.80
2018-02-13T18:15:48.610Z,8.02
2018-02-13T18:18:19.618Z,8.35
2018-02-13T18:20:49.136Z,9.05
2018-02-13T18:23:18.259Z,8.75
2018-02-13T18:25:48.706Z,9.40
2018-02-13T18:28:17.592Z,8.80
2018-02-13T18:30:46.329Z,8.80
2018-02-13T18:33:17.659Z,8.40
2018-02-13T18:35:47.994Z,9.13
2018-02-13T18:38:18.075Z,8.30
2018-02-13T18:40:49.177Z,9.65
2018-02-13T18:43:20.251Z,9.35
2018-02-13T18:45:49.588Z,8.75
2018-02-13T18:48:22.088Z,8.30
2018-02-13T18:50:51.003Z,8.48
2018-02-13T18:53:20.203Z,9.07
2018-02-13T18:55:49.861Z,9.02
2018-02-13T18:58:22.795Z,9.93
2018-02-13T19:00:57.708Z,10.18
2018-02-13T19:03:27.791Z,9.20
2018-02-13T19:05:59.532Z,9.38
2018-02-13T19:08:33.911Z,10.10
2018-02-13T19:11:05.980Z,9.68
2018-02-13T19:13:36.339Z,10.70
2018-02-13T19:16:06.274Z,10.50
2018-02-13T19:18:34.944Z,11.02
2018-02-13T19:21:05.862Z,10.07
2018-02-13T19:23:36.623Z,10.07
2018-02-13T19:26:05.265Z,10.18
2018-02-13T19:28:35.414Z,11.05
2018-02-13T19:31:04.638Z,12.57
2018-02-13T19:33:33.590Z,10.48
2018-02-13T19:36:02.902Z,11.10
2018-02-13T19:38:42.658Z,11.15
2018-02-13T19:41:11.715Z,10.60
2018-02-13T19:43:42.145Z,11.12
2018-02-13T19:46:11.709Z,12.02
2018-02-13T19:48:41.608Z,11.60
2018-02-13T19:51:16.888Z,12.45
2018-02-13T19:53:51.506Z,12.93
2018-02-13T19:56:24.126Z,10.63
2018-02-13T19:58:53.726Z,10.25
2018-02-13T20:01:24.769Z,10.82
2018-02-13T20:03:53.198Z,10.52
2018-02-13T20:06:27.539Z,11.73
2018-02-13T20:08:56.502Z,12.82
2018-02-13T20:11:29.381Z,12.05
2018-02-13T20:14:00.757Z,13.20
2018-02-13T20:16:32.367Z,12.75
2018-02-13T20:19:01.994Z,10.40
2018-02-13T20:21:47.763Z,11.30
2018-02-13T20:24:26.198Z,10.10
2018-02-13T20:26:58.593Z,12.07
2018-02-13T20:29:33.202Z,10.38
2018-02-13T20:32:03.625Z,12.90
2018-02-13T20:37:20.612Z,11.85
2018-02-13T20:39:53.611Z,11.50
2018-02-13T20:42:31.956Z,10.93
2018-02-13T20:45:05.200Z,9.88
2018-02-13T20:47:43.769Z,10.38
2018-02-13T20:56:14.048Z,11.30
2018-02-13T20:58:44.440Z,10.45
2018-02-13T21:01:15.497Z,11.27
2018-02-13T21:03:49.520Z,10.95
2018-02-13T21:06:18.589Z,9.88
2018-02-13T21:08:52.352Z,9.75
2018-02-13T21:11:22.291Z,10.30
2018-02-13T21:16:54.885Z,10.05
2018-02-13T21:19:25.465Z,9.02
2018-02-13T21:21:54.694Z,11.55
2018-02-13T21:24:28.294Z,11.30
2018-02-13T21:26:58.492Z,10.88
2018-02-13T21:29:29.247Z,11.57
2018-02-13T21:32:00.043Z,9.70
2018-02-13T21:34:32.456Z,10.00
2018-02-13T21:52:21.437Z,9.73
2018-02-13T21:54:52.511Z,11.70
2018-02-13T22:15:24.822Z,10.98
2018-02-13T23:02:45.175Z,10.65
2018-02-13T23:05:16.839Z,11.55
2018-02-13T23:23:21.113Z,12.55
